createdAt,value
2018-04-30T00:01:25.448Z,19.93
2018-04-30T00:03:51.172Z,19.63
2018-04-30T00:06:16.900Z,19.10
2018-04-30T00:08:42.633Z,18.53
2018-04-30T00:11:08.357Z,18.87
2018-04-30T00:13:34.079Z,19.50
2018-04-30T00:15:59.816Z,18.73
2018-04-30T00:18:25.536Z,17.80
2018-04-30T00:20:51.277Z,17.87
2018-04-30T00:23:17.009Z,18.27
2018-04-30T00:25:42.753Z,18.20
2018-04-30T00:28:08.467Z,19.17
2018-04-30T00:30:34.210Z,18.60
2018-04-30T00:32:59.940Z,19.47
2018-04-30T00:35:25.701Z,17.67
2018-04-30T00:37:51.428Z,18.13
2018-04-30T00:40:17.177Z,17.87
2018-04-30T00:42:42.908Z,18.30
2018-04-30T00:45:08.644Z,19.03
2018-04-30T00:47:34.376Z,19.03
2018-04-30T00:50:00.100Z,19.37
2018-04-30T00:52:25.834Z,19.87
2018-04-30T00:54:58.674Z,19.77
2018-04-30T00:57:24.607Z,19.90
2018-04-30T00:59:50.272Z,19.90
2018-04-30T01:02:16.013Z,21.77
2018-04-30T01:04:41.743Z,21.07
2018-04-30T01:07:07.477Z,20.63
2018-04-30T01:09:33.244Z,22.03
2018-04-30T01:11:58.964Z,22.53
2018-04-30T01:14:24.721Z,22.70
2018-04-30T01:16:50.434Z,22.80
2018-04-30T01:19:16.152Z,22.77
2018-04-30T01:21:41.893Z,26.03
2018-04-30T01:24:07.618Z,24.63
2018-04-30T01:26:33.353Z,25.00
2018-04-30T01:28:59.068Z,26.53
2018-04-30T01:31:24.813Z,27.00
2018-04-30T01:33:50.541Z,27.93
2018-04-30T01:36:16.269Z,28.50
2018-04-30T01:38:41.983Z,28.57
2018-04-30T01:41:07.733Z,29.43
2018-04-30T01:43:33.451Z,28.63
2018-04-30T01:45:59.187Z,27.07
2018-04-30T01:48:24.916Z,26.23
2018-04-30T01:50:50.657Z,28.67
2018-04-30T01:53:16.377Z,28.23
2018-04-30T01:55:42.148Z,28.83
2018-04-30T01:58:07.868Z,28.40
2018-04-30T02:00:33.601Z,29.00
2018-04-30T02:02:59.349Z,28.80
2018-04-30T02:05:25.073Z,27.73
2018-04-30T02:07:50.807Z,28.33
2018-04-30T02:10:16.520Z,27.83
2018-04-30T02:12:42.260Z,28.97
2018-04-30T02:15:07.996Z,30.87
2018-04-30T02:17:33.736Z,27.93
2018-04-30T02:19:59.472Z,30.33
2018-04-30T02:22:25.227Z,31.37
2018-04-30T02:24:50.953Z,31.93
2018-04-30T02:27:16.675Z,30.73
2018-04-30T02:29:42.408Z,31.60
2018-04-30T02:32:08.133Z,31.53
2018-04-30T02:34:33.847Z,31.93
2018-04-30T02:36:59.577Z,32.40
2018-04-30T02:39:25.317Z,31.83
2018-04-30T02:41:51.045Z,32.83
2018-04-30T02:44:16.768Z,31.13
2018-04-30T02:46:42.503Z,33.67
2018-04-30T02:49:08.228Z,30.00
2018-04-30T02:51:33.972Z,31.17
2018-04-30T02:53:59.696Z,31.00
2018-04-30T02:56:25.529Z,29.70
2018-04-30T02:58:51.268Z,30.53
2018-04-30T03:01:16.993Z,29.30
2018-04-30T03:03:42.713Z,31.33
2018-04-30T03:06:08.440Z,29.50
2018-04-30T03:08:34.170Z,31.10
2018-04-30T03:10:59.904Z,30.67
2018-04-30T03:13:25.636Z,27.97
2018-04-30T03:15:51.356Z,28.83
2018-04-30T03:18:17.087Z,27.77
2018-04-30T03:20:42.808Z,28.30
2018-04-30T03:23:08.537Z,28.17
2018-04-30T03:25:34.269Z,27.97
2018-04-30T03:27:59.992Z,27.23
2018-04-30T03:30:25.727Z,27.53
2018-04-30T03:32:51.448Z,26.33
2018-04-30T03:35:17.172Z,25.53
2018-04-30T03:37:42.897Z,26.57
2018-04-30T03:40:08.619Z,26.17
2018-04-30T03:42:34.356Z,26.13
2018-04-30T03:45:00.071Z,25.43
2018-04-30T03:47:25.804Z,25.07
2018-04-30T03:49:51.527Z,24.30
2018-04-30T03:52:17.276Z,24.87
2018-04-30T03:54:43.004Z,23.10
2018-04-30T03:57:08.731Z,23.57
2018-04-30T03:59:34.447Z,23.73
2018-04-30T04:02:12.586Z,22.87
2018-04-30T04:04:50.524Z,22.77
2018-04-30T04:07:16.269Z,23.50
2018-04-30T04:09:41.991Z,24.43
2018-04-30T04:12:07.728Z,23.07
2018-04-30T04:14:33.461Z,24.33
2018-04-30T04:16:59.187Z,25.13
2018-04-30T04:19:24.920Z,24.77
2018-04-30T04:21:50.652Z,24.97
2018-04-30T04:24:16.397Z,25.63
2018-04-30T04:26:42.112Z,24.83
2018-04-30T04:29:07.850Z,24.33
2018-04-30T04:31:33.580Z,24.77
2018-04-30T04:33:59.312Z,23.37
2018-04-30T04:36:25.037Z,24.20
2018-04-30T04:38:50.768Z,27.17
2018-04-30T04:41:16.506Z,26.43
2018-04-30T04:43:42.229Z,25.40
2018-04-30T04:46:07.955Z,26.17
2018-04-30T04:48:33.683Z,23.77
2018-04-30T04:50:59.404Z,24.60
2018-04-30T04:53:25.141Z,25.57
2018-04-30T04:55:50.876Z,25.40
2018-04-30T04:58:16.613Z,23.80
2018-04-30T05:00:42.340Z,24.77
2018-04-30T05:03:08.057Z,22.90
2018-04-30T05:05:33.780Z,23.47
2018-04-30T05:07:59.502Z,20.93
2018-04-30T05:10:25.219Z,22.27
2018-04-30T05:12:50.943Z,21.07
2018-04-30T05:15:16.664Z,22.37
2018-04-30T05:17:42.405Z,19.83
2018-04-30T05:20:08.136Z,18.53
2018-04-30T05:22:33.852Z,17.87
2018-04-30T05:24:59.584Z,18.20
2018-04-30T05:27:25.297Z,17.27
2018-04-30T05:29:51.020Z,17.40
2018-04-30T05:32:16.736Z,17.77
2018-04-30T05:34:42.467Z,17.47
2018-04-30T05:37:08.196Z,17.30
2018-04-30T05:39:33.928Z,15.20
2018-04-30T05:41:59.654Z,15.80
2018-04-30T05:44:25.438Z,14.60
2018-04-30T05:46:51.126Z,14.23
2018-04-30T05:49:16.865Z,13.93
2018-04-30T05:51:42.588Z,12.57
2018-04-30T05:54:08.348Z,13.90
2018-04-30T05:56:34.075Z,13.57
2018-04-30T05:58:59.816Z,11.90
2018-04-30T06:01:25.637Z,12.20
2018-04-30T06:03:51.369Z,12.10
2018-04-30T06:06:17.096Z,12.20
2018-04-30T06:08:42.890Z,11.87
2018-04-30T06:11:08.568Z,11.90
2018-04-30T06:13:34.313Z,12.50
2018-04-30T06:16:00.043Z,11.87
2018-04-30T06:18:26.567Z,11.40
2018-04-30T06:20:52.284Z,11.50
2018-04-30T06:23:18.013Z,12.00
2018-04-30T06:25:43.767Z,11.50
2018-04-30T06:28:09.500Z,10.70
2018-04-30T06:30:35.216Z,11.53
2018-04-30T06:33:00.941Z,11.17
2018-04-30T06:35:26.676Z,11.50
2018-04-30T06:37:52.409Z,10.93
2018-04-30T06:40:18.144Z,11.80
2018-04-30T06:42:43.869Z,11.87
2018-04-30T06:45:09.620Z,10.70
2018-04-30T06:47:35.347Z,10.43
2018-04-30T06:50:01.086Z,9.97
2018-04-30T06:52:26.808Z,10.27
2018-04-30T06:54:52.539Z,10.60
2018-04-30T06:57:18.269Z,11.13
2018-04-30T06:59:44.019Z,11.57
2018-04-30T07:02:09.749Z,11.43
2018-04-30T07:04:35.477Z,11.03
2018-04-30T07:07:01.195Z,10.70
2018-04-30T07:09:27.004Z,10.27
2018-04-30T07:11:52.661Z,12.00
2018-04-30T07:14:18.396Z,13.10
2018-04-30T07:16:44.124Z,13.40
2018-04-30T07:19:09.905Z,14.23
2018-04-30T07:21:35.628Z,16.20
2018-04-30T07:24:01.370Z,18.37
2018-04-30T07:26:27.084Z,18.30
2018-04-30T07:28:52.817Z,22.92
2018-04-30T07:31:18.549Z,16.50
2018-04-30T07:33:44.279Z,18.10
2018-04-30T07:36:10.000Z,18.00
2018-04-30T07:38:35.742Z,19.07
2018-04-30T07:41:01.477Z,17.57
2018-04-30T07:43:27.204Z,17.13
2018-04-30T07:45:52.937Z,18.13
2018-04-30T07:48:18.657Z,15.80
2018-04-30T07:50:44.403Z,16.60
2018-04-30T07:53:10.120Z,14.63
2018-04-30T07:55:35.855Z,13.93
2018-04-30T07:58:01.592Z,16.37
2018-04-30T08:00:27.315Z,14.00
2018-04-30T08:02:53.040Z,12.93
2018-04-30T08:05:18.780Z,13.60
2018-04-30T08:07:44.563Z,14.80
2018-04-30T08:10:10.304Z,15.67
2018-04-30T08:12:36.021Z,13.73
2018-04-30T08:15:01.759Z,13.70
2018-04-30T08:17:27.484Z,14.00
2018-04-30T08:19:53.216Z,12.40
2018-04-30T08:22:18.943Z,12.73
2018-04-30T08:24:44.695Z,11.53
2018-04-30T08:27:10.403Z,16.10
2018-04-30T08:29:36.159Z,11.83
2018-04-30T08:32:01.897Z,12.33
2018-04-30T08:34:27.632Z,13.73
2018-04-30T08:36:53.348Z,12.63
2018-04-30T08:39:19.080Z,13.17
2018-04-30T08:41:44.861Z,13.33
2018-04-30T08:44:10.614Z,14.93
2018-04-30T08:46:36.344Z,13.67
2018-04-30T08:49:02.073Z,14.43
2018-04-30T08:51:27.812Z,13.37
2018-04-30T08:53:53.528Z,13.60
2018-04-30T08:56:19.273Z,13.80
2018-04-30T08:58:45.000Z,14.40
2018-04-30T09:01:10.731Z,15.13
2018-04-30T09:03:36.444Z,14.80
2018-04-30T09:06:02.178Z,14.00
2018-04-30T09:08:27.897Z,15.77
2018-04-30T09:10:53.638Z,13.87
2018-04-30T09:13:19.355Z,15.10
2018-04-30T09:15:45.084Z,14.37
2018-04-30T09:18:10.792Z,13.70
2018-04-30T09:20:36.518Z,14.63
2018-04-30T09:23:02.241Z,14.30
2018-04-30T09:25:27.981Z,13.37
2018-04-30T09:27:53.705Z,14.37
2018-04-30T09:30:19.449Z,14.33
2018-04-30T09:32:45.163Z,12.93
2018-04-30T09:35:10.891Z,13.93
2018-04-30T09:37:36.603Z,14.03
2018-04-30T09:40:02.340Z,14.50
2018-04-30T09:42:28.065Z,13.47
2018-04-30T09:44:53.800Z,12.83
2018-04-30T09:47:19.520Z,14.23
2018-04-30T09:49:45.235Z,14.10
2018-04-30T09:52:10.960Z,13.90
2018-04-30T09:54:36.676Z,13.53
2018-04-30T09:57:02.427Z,13.40
2018-04-30T09:59:28.144Z,12.80
2018-04-30T10:01:53.920Z,13.60
2018-04-30T10:04:19.612Z,13.33
2018-04-30T10:06:45.348Z,12.87
2018-04-30T10:09:11.068Z,13.40
2018-04-30T10:11:36.797Z,13.63
2018-04-30T10:14:02.525Z,13.57
2018-04-30T10:16:28.256Z,13.43
2018-04-30T10:18:53.988Z,13.77
2018-04-30T10:21:19.729Z,13.80
2018-04-30T10:23:45.526Z,12.60
2018-04-30T10:26:11.208Z,13.13
2018-04-30T10:28:36.988Z,13.30
2018-04-30T10:31:02.681Z,13.93
2018-04-30T10:33:28.403Z,14.97
2018-04-30T10:35:54.132Z,15.00
2018-04-30T10:38:19.868Z,14.27
2018-04-30T10:40:45.608Z,13.80
2018-04-30T10:43:11.327Z,13.70
2018-04-30T10:45:37.058Z,13.13
2018-04-30T10:48:02.799Z,14.40
2018-04-30T10:50:28.532Z,13.67
2018-04-30T10:52:54.263Z,13.60
2018-04-30T10:55:19.988Z,14.30
2018-04-30T10:57:45.741Z,13.87
2018-04-30T11:00:11.462Z,14.50
2018-04-30T11:02:37.199Z,13.70
2018-04-30T11:05:02.922Z,14.97
2018-04-30T11:07:28.651Z,15.13
2018-04-30T11:09:54.384Z,14.83
2018-04-30T11:12:20.186Z,14.87
2018-04-30T11:14:45.865Z,15.17
2018-04-30T11:17:11.609Z,14.40
2018-04-30T11:19:37.332Z,15.17
2018-04-30T11:22:03.077Z,15.10
2018-04-30T11:24:28.810Z,16.67
2018-04-30T11:26:54.557Z,15.60
2018-04-30T11:29:20.277Z,16.77
2018-04-30T11:31:46.008Z,17.07
2018-04-30T11:34:11.810Z,19.33
2018-04-30T11:36:37.469Z,21.90
2018-04-30T11:39:03.217Z,31.00
2018-04-30T11:41:28.945Z,36.23
2018-04-30T11:43:54.676Z,41.60
2018-04-30T11:46:20.419Z,40.60
2018-04-30T11:48:46.153Z,45.77
2018-04-30T11:51:11.888Z,42.30
2018-04-30T11:53:37.636Z,44.30
2018-04-30T11:56:03.403Z,43.50
2018-04-30T11:58:29.141Z,44.07
2018-04-30T12:00:54.878Z,41.33
2018-04-30T12:03:20.611Z,42.33
2018-04-30T12:05:46.352Z,36.40
2018-04-30T12:08:12.088Z,34.13
2018-04-30T12:10:37.813Z,29.67
2018-04-30T12:13:03.552Z,28.03
2018-04-30T12:15:29.285Z,26.47
2018-04-30T12:17:55.031Z,25.27
2018-04-30T12:20:20.760Z,25.33
2018-04-30T12:22:46.500Z,24.47
2018-04-30T12:25:12.220Z,22.37
2018-04-30T12:27:37.968Z,22.43
2018-04-30T12:30:03.708Z,22.43
2018-04-30T12:32:29.443Z,19.87
2018-04-30T12:34:55.182Z,18.67
2018-04-30T12:37:20.928Z,18.83
2018-04-30T12:39:46.655Z,17.00
2018-04-30T12:42:12.399Z,16.00
2018-04-30T12:44:38.142Z,15.90
2018-04-30T12:47:03.872Z,15.40
2018-04-30T12:49:29.705Z,15.10
2018-04-30T12:51:55.360Z,14.90
2018-04-30T12:54:21.089Z,15.23
2018-04-30T12:56:46.840Z,15.63
2018-04-30T12:59:12.557Z,15.80
2018-04-30T13:01:38.280Z,14.97
2018-04-30T13:05:54.937Z,15.07
2018-04-30T13:08:20.671Z,15.47
2018-04-30T13:10:46.389Z,14.77
2018-04-30T13:13:12.117Z,14.67
2018-04-30T13:15:37.840Z,15.33
2018-04-30T13:18:03.580Z,15.33
2018-04-30T13:20:29.292Z,14.33
2018-04-30T13:22:55.032Z,15.67
2018-04-30T13:25:20.753Z,15.20
2018-04-30T13:27:46.509Z,15.43
2018-04-30T13:30:12.229Z,15.83
2018-04-30T13:32:37.964Z,15.13
2018-04-30T13:35:03.672Z,15.87
2018-04-30T13:37:29.387Z,15.10
2018-04-30T13:39:55.160Z,14.70
2018-04-30T13:42:20.876Z,13.87
2018-04-30T13:44:46.599Z,13.33
2018-04-30T13:47:12.334Z,14.10
2018-04-30T13:49:38.062Z,12.70
2018-04-30T13:52:03.808Z,11.13
2018-04-30T13:54:29.531Z,9.53
2018-04-30T13:56:55.264Z,10.27
2018-04-30T13:59:20.991Z,9.63
2018-04-30T14:01:46.717Z,8.17
2018-04-30T14:04:12.447Z,8.70
2018-04-30T14:06:38.159Z,9.30
2018-04-30T14:09:04.801Z,8.07
2018-04-30T14:11:30.524Z,8.50
2018-04-30T14:13:56.242Z,7.50
2018-04-30T14:16:21.956Z,7.70
2018-04-30T14:18:47.689Z,7.50
2018-04-30T14:21:13.408Z,8.20
2018-04-30T14:23:39.133Z,8.27
2018-04-30T14:26:04.854Z,8.27
2018-04-30T14:28:30.590Z,9.07
2018-04-30T14:30:56.299Z,11.27
2018-04-30T14:33:22.036Z,10.30
2018-04-30T14:35:47.744Z,12.80
2018-04-30T14:38:13.468Z,11.03
2018-04-30T14:40:39.186Z,12.27
2018-04-30T14:43:04.935Z,12.07
2018-04-30T14:45:30.681Z,11.03
2018-04-30T14:47:56.406Z,10.30
2018-04-30T14:50:22.132Z,11.57
2018-04-30T14:52:47.852Z,10.53
2018-04-30T14:55:13.577Z,10.63
2018-04-30T14:57:39.304Z,9.40
2018-04-30T15:00:05.026Z,9.73
2018-04-30T15:02:30.836Z,9.67
2018-04-30T15:04:56.491Z,8.60
2018-04-30T15:07:22.220Z,9.17
2018-04-30T15:09:47.947Z,7.60
2018-04-30T15:12:13.661Z,6.37
2018-04-30T15:14:39.387Z,6.17
2018-04-30T15:17:05.123Z,5.83
2018-04-30T15:19:30.887Z,5.53
2018-04-30T15:21:56.568Z,6.10
2018-04-30T15:24:22.300Z,5.30
2018-04-30T15:26:48.026Z,5.40
2018-04-30T15:29:13.763Z,5.33
2018-04-30T15:31:39.483Z,5.67
2018-04-30T15:34:05.224Z,5.50
2018-04-30T15:36:30.935Z,7.27
2018-04-30T15:38:56.656Z,7.37
2018-04-30T15:41:22.376Z,6.13
2018-04-30T15:43:48.129Z,6.03
2018-04-30T15:46:13.861Z,5.70
2018-04-30T15:48:39.686Z,6.10
2018-04-30T15:51:05.343Z,6.30
2018-04-30T15:53:31.078Z,6.37
2018-04-30T15:55:56.813Z,6.03
2018-04-30T15:58:22.560Z,5.93
2018-04-30T16:00:48.280Z,6.00
2018-04-30T16:03:14.021Z,6.23
2018-04-30T16:05:39.747Z,5.70
2018-04-30T16:08:05.501Z,6.57
2018-04-30T16:10:31.227Z,6.77
2018-04-30T16:12:56.950Z,6.47
2018-04-30T16:15:22.677Z,6.70
2018-04-30T16:17:48.399Z,6.20
2018-04-30T16:20:14.182Z,7.07
2018-04-30T16:22:39.847Z,6.60
2018-04-30T16:25:05.580Z,6.73
2018-04-30T16:27:31.305Z,5.87
2018-04-30T16:29:57.044Z,6.33
2018-04-30T16:32:22.775Z,6.37
2018-04-30T16:34:48.504Z,6.30
2018-04-30T16:37:14.229Z,6.30
2018-04-30T16:39:39.962Z,5.60
2018-04-30T16:42:05.693Z,5.73
2018-04-30T16:44:31.424Z,5.87
2018-04-30T16:46:57.216Z,5.17
2018-04-30T16:49:22.868Z,5.20
2018-04-30T16:51:48.594Z,5.80
2018-04-30T16:54:14.324Z,4.93
2018-04-30T16:56:40.048Z,5.03
2018-04-30T16:59:05.780Z,5.53
2018-04-30T17:01:31.488Z,5.13
2018-04-30T17:03:57.219Z,4.53
2018-04-30T17:06:22.934Z,4.37
2018-04-30T17:08:48.680Z,4.70
2018-04-30T17:11:14.400Z,4.47
2018-04-30T17:13:40.157Z,4.33
2018-04-30T17:16:05.906Z,4.27
2018-04-30T17:18:31.650Z,4.60
2018-04-30T17:20:57.377Z,4.17
2018-04-30T17:23:23.114Z,4.03
2018-04-30T17:25:48.860Z,4.00
2018-04-30T17:28:14.590Z,4.03
2018-04-30T17:30:40.337Z,3.63
2018-04-30T17:33:06.065Z,4.33
2018-04-30T17:35:31.798Z,4.00
2018-04-30T17:37:57.530Z,3.50
2018-04-30T17:40:23.260Z,4.00
2018-04-30T17:42:48.977Z,3.70
2018-04-30T17:45:14.697Z,4.50
2018-04-30T17:47:40.407Z,3.03
2018-04-30T17:50:06.156Z,2.60
2018-04-30T17:52:31.897Z,2.40
2018-04-30T17:54:57.626Z,2.60
2018-04-30T17:57:25.084Z,2.83
2018-04-30T17:59:50.919Z,2.60
2018-04-30T18:02:16.648Z,2.60
2018-04-30T18:04:42.384Z,2.20
2018-04-30T18:07:08.395Z,2.60
2018-04-30T18:09:34.562Z,2.60
2018-04-30T18:12:00.324Z,2.50
2018-04-30T18:14:26.063Z,2.40
2018-04-30T18:16:51.793Z,2.23
2018-04-30T18:19:17.523Z,2.80
2018-04-30T18:21:43.255Z,2.70
2018-04-30T18:24:08.986Z,3.43
2018-04-30T18:26:34.806Z,3.37
2018-04-30T18:29:00.446Z,3.60
2018-04-30T18:31:26.176Z,3.37
2018-04-30T18:33:51.902Z,2.93
2018-04-30T18:36:17.653Z,3.47
2018-04-30T18:38:43.450Z,4.60
2018-04-30T18:41:09.132Z,5.23
2018-04-30T18:43:34.844Z,3.37
2018-04-30T18:46:00.589Z,2.10
2018-04-30T18:48:26.301Z,2.27
2018-04-30T18:50:52.031Z,2.53
2018-04-30T18:53:17.757Z,3.03
2018-04-30T18:55:43.492Z,3.53
2018-04-30T18:58:09.216Z,3.50
2018-04-30T19:00:34.945Z,2.43
2018-04-30T19:03:00.665Z,2.70
2018-04-30T19:05:26.391Z,3.00
2018-04-30T19:07:52.117Z,2.70
2018-04-30T19:10:17.852Z,2.50
2018-04-30T19:12:43.564Z,2.40
2018-04-30T19:15:09.289Z,2.00
2018-04-30T19:17:35.014Z,2.20
2018-04-30T19:20:00.745Z,1.73
2018-04-30T19:22:26.756Z,1.80
2018-04-30T19:24:52.479Z,2.20
2018-04-30T19:27:18.197Z,2.20
2018-04-30T19:29:43.929Z,2.23
2018-04-30T19:32:09.661Z,1.90
2018-04-30T19:34:35.375Z,1.90
2018-04-30T19:37:01.108Z,2.13
2018-04-30T19:39:26.825Z,1.83
2018-04-30T19:41:52.552Z,1.70
2018-04-30T19:44:18.279Z,1.93
2018-04-30T19:46:44.073Z,1.77
2018-04-30T19:49:09.736Z,1.80
2018-04-30T19:51:35.456Z,1.90
2018-04-30T19:54:01.167Z,1.93
2018-04-30T19:56:26.901Z,2.20
2018-04-30T19:58:52.620Z,1.70
2018-04-30T20:01:18.355Z,1.53
2018-04-30T20:03:44.069Z,1.90
2018-04-30T20:06:09.788Z,4.90
2018-04-30T20:08:35.512Z,8.47
2018-04-30T20:11:01.247Z,9.10
2018-04-30T20:13:26.986Z,18.80
2018-04-30T20:15:52.713Z,2.77
2018-04-30T20:18:18.413Z,2.10
2018-04-30T20:20:44.140Z,1.70
2018-04-30T20:23:09.863Z,1.80
2018-04-30T20:25:35.592Z,1.67
2018-04-30T20:28:01.309Z,2.00
2018-04-30T20:30:27.048Z,1.63
2018-04-30T20:32:52.768Z,1.90
2018-04-30T20:35:18.500Z,1.40
2018-04-30T20:37:44.233Z,1.23
2018-04-30T20:40:09.949Z,1.30
2018-04-30T20:42:35.676Z,1.40
2018-04-30T20:45:01.389Z,1.50
2018-04-30T20:47:27.113Z,1.73
2018-04-30T20:49:52.834Z,2.00
2018-04-30T20:52:18.560Z,2.20
2018-04-30T20:54:44.281Z,2.10
2018-04-30T20:57:10.004Z,2.50
2018-04-30T20:59:35.717Z,2.20
2018-04-30T21:02:01.444Z,2.30
2018-04-30T21:04:27.212Z,2.27
2018-04-30T21:06:52.936Z,2.10
2018-04-30T21:09:18.647Z,2.40
2018-04-30T21:11:44.380Z,3.07
2018-04-30T21:14:10.083Z,2.73
2018-04-30T21:16:35.823Z,2.77
2018-04-30T21:19:01.531Z,2.60
2018-04-30T21:21:27.261Z,2.50
2018-04-30T21:23:52.984Z,2.70
2018-04-30T21:26:18.715Z,2.50
2018-04-30T21:28:44.435Z,2.50
2018-04-30T21:31:10.154Z,2.20
2018-04-30T21:33:35.879Z,2.20
2018-04-30T21:36:01.600Z,1.80
2018-04-30T21:38:27.323Z,2.03
2018-04-30T21:40:53.044Z,1.80
2018-04-30T21:43:18.764Z,2.07
2018-04-30T21:45:44.480Z,1.83
2018-04-30T21:48:10.212Z,1.60
2018-04-30T21:50:35.921Z,1.40
2018-04-30T21:53:01.640Z,1.43
2018-04-30T21:55:27.360Z,1.60
2018-04-30T21:57:53.098Z,1.60
2018-04-30T22:00:18.855Z,1.70
2018-04-30T22:02:44.596Z,1.63
2018-04-30T22:05:10.316Z,2.13
2018-04-30T22:07:36.048Z,2.10
2018-04-30T22:10:01.774Z,1.80
2018-04-30T22:12:27.504Z,1.93
2018-04-30T22:14:53.228Z,1.67
2018-04-30T22:17:18.957Z,1.80
2018-04-30T22:19:44.673Z,1.50
2018-04-30T22:22:10.436Z,2.00
2018-04-30T22:24:36.139Z,2.10
2018-04-30T22:27:01.881Z,1.90
2018-04-30T22:29:27.603Z,2.00
2018-04-30T22:31:53.328Z,2.10
2018-04-30T22:34:19.053Z,1.80
2018-04-30T22:36:44.804Z,1.73
2018-04-30T22:39:10.519Z,1.70
2018-04-30T22:41:36.241Z,1.57
2018-04-30T22:44:02.000Z,1.93
2018-04-30T22:46:27.704Z,1.80
2018-04-30T22:48:53.444Z,1.70
2018-04-30T22:51:19.164Z,1.90
2018-04-30T22:53:44.908Z,1.93
2018-04-30T22:56:10.633Z,1.70
2018-04-30T22:58:36.375Z,2.07
2018-04-30T23:01:02.097Z,2.20
2018-04-30T23:03:27.832Z,1.83
2018-04-30T23:05:53.568Z,1.87
2018-04-30T23:08:19.291Z,1.60
2018-04-30T23:10:45.005Z,1.60
2018-04-30T23:13:10.736Z,1.43
2018-04-30T23:15:36.453Z,1.50
2018-04-30T23:18:02.175Z,1.50
2018-04-30T23:20:27.889Z,1.33
2018-04-30T23:22:53.657Z,1.90
2018-04-30T23:25:20.351Z,1.40
2018-04-30T23:27:46.084Z,1.20
2018-04-30T23:30:11.788Z,1.37
2018-04-30T23:32:37.508Z,1.47
2018-04-30T23:35:03.224Z,1.30
2018-04-30T23:37:28.949Z,1.40
2018-04-30T23:39:54.665Z,1.30
2018-04-30T23:42:20.708Z,1.30
2018-04-30T23:44:46.436Z,1.30
2018-04-30T23:47:12.163Z,1.40
2018-04-30T23:49:37.896Z,1.43
2018-04-30T23:52:03.619Z,1.37
2018-04-30T23:54:29.331Z,1.37
2018-04-30T23:56:55.069Z,1.40
2018-04-30T23:59:21.490Z,1.20
